sensor_id;sensor_type;location;lat;lon;timestamp;pressure;altitude;pressure_sealevel;temperature;humidity
27864;BME280;15980;51.092;13.916;2023-05-08T00:04:09;99528.16;;;6.65;80.90
27864;BME280;15980;51.092;13.916;2023-05-08T00:14:09;99530.88;;;6.22;82.57
27864;BME280;15980;51.092;13.916;2023-05-08T00:24:10;99530.34;;;5.96;84.19
27864;BME280;15980;51.092;13.916;2023-05-08T00:34:10;99529.78;;;5.71;85.69
27864;BME280;15980;51.092;13.916;2023-05-08T00:44:10;99522.44;;;5.42;86.08
27864;BME280;15980;51.092;13.916;2023-05-08T00:54:11;99527.84;;;5.13;86.40
27864;BME280;15980;51.092;13.916;2023-05-08T01:04:11;99532.88;;;4.96;88.23
27864;BME280;15980;51.092;13.916;2023-05-08T01:35:02;99532.19;;;4.75;89.58
27864;BME280;15980;51.092;13.916;2023-05-08T01:45:24;99545.56;;;4.66;89.40
27864;BME280;15980;51.092;13.916;2023-05-08T01:55:30;99548.91;;;4.48;89.43
27864;BME280;15980;51.092;13.916;2023-05-08T02:05:31;99542.47;;;4.34;89.96
27864;BME280;15980;51.092;13.916;2023-05-08T02:15:34;99545.50;;;4.22;89.94
27864;BME280;15980;51.092;13.916;2023-05-08T02:25:36;99547.75;;;4.00;89.56
27864;BME280;15980;51.092;13.916;2023-05-08T02:35:38;99548.06;;;3.78;90.22
27864;BME280;15980;51.092;13.916;2023-05-08T02:45:46;99548.94;;;3.53;89.63
27864;BME280;15980;51.092;13.916;2023-05-08T02:55:51;99545.94;;;3.29;90.35
27864;BME280;15980;51.092;13.916;2023-05-08T03:05:54;99547.31;;;3.27;90.14
27864;BME280;15980;51.092;13.916;2023-05-08T03:16:03;99554.91;;;3.14;90.58
27864;BME280;15980;51.092;13.916;2023-05-08T03:26:04;99556.25;;;3.12;91.52
27864;BME280;15980;51.092;13.916;2023-05-08T03:36:07;99554.63;;;3.16;91.83
27864;BME280;15980;51.092;13.916;2023-05-08T03:46:08;99547.84;;;3.34;92.53
27864;BME280;15980;51.092;13.916;2023-05-08T03:56:09;99553.81;;;3.61;92.32
27864;BME280;15980;51.092;13.916;2023-05-08T04:06:23;99557.56;;;3.91;92.15
27864;BME280;15980;51.092;13.916;2023-05-08T04:16:26;99570.50;;;4.14;91.74
27864;BME280;15980;51.092;13.916;2023-05-08T04:26:28;99575.34;;;4.37;90.45
27864;BME280;15980;51.092;13.916;2023-05-08T04:36:30;99580.59;;;4.68;90.41
27864;BME280;15980;51.092;13.916;2023-05-08T04:46:30;99597.22;;;5.11;89.87
27864;BME280;15980;51.092;13.916;2023-05-08T04:56:31;99605.38;;;5.50;88.89
27864;BME280;15980;51.092;13.916;2023-05-08T05:06:31;99610.75;;;5.89;87.08
27864;BME280;15980;51.092;13.916;2023-05-08T05:16:32;99612.06;;;6.25;84.81
27864;BME280;15980;51.092;13.916;2023-05-08T05:26:33;99617.09;;;6.61;82.68
27864;BME280;15980;51.092;13.916;2023-05-08T05:36:33;99616.69;;;6.91;80.10
27864;BME280;15980;51.092;13.916;2023-05-08T05:46:33;99615.97;;;7.23;77.77
27864;BME280;15980;51.092;13.916;2023-05-08T05:56:33;99631.00;;;7.59;76.23
27864;BME280;15980;51.092;13.916;2023-05-08T06:06:34;99628.16;;;7.82;74.97
27864;BME280;15980;51.092;13.916;2023-05-08T06:16:35;99636.22;;;8.06;73.52
27864;BME280;15980;51.092;13.916;2023-05-08T06:26:35;99632.84;;;8.42;70.50
27864;BME280;15980;51.092;13.916;2023-05-08T06:36:36;99633.88;;;8.73;68.60
27864;BME280;15980;51.092;13.916;2023-05-08T06:46:36;99640.31;;;9.19;67.18
27864;BME280;15980;51.092;13.916;2023-05-08T06:56:36;99643.63;;;9.52;65.25
27864;BME280;15980;51.092;13.916;2023-05-08T07:06:37;99634.38;;;9.84;62.88
27864;BME280;15980;51.092;13.916;2023-05-08T07:16:37;99627.94;;;10.11;62.52
27864;BME280;15980;51.092;13.916;2023-05-08T07:26:37;99640.19;;;10.35;60.80
27864;BME280;15980;51.092;13.916;2023-05-08T07:36:37;99636.94;;;10.73;58.30
27864;BME280;15980;51.092;13.916;2023-05-08T07:46:38;99625.56;;;11.06;56.50
27864;BME280;15980;51.092;13.916;2023-05-08T07:56:38;99624.47;;;11.41;56.28
27864;BME280;15980;51.092;13.916;2023-05-08T08:06:39;99619.78;;;11.68;56.21
27864;BME280;15980;51.092;13.916;2023-05-08T08:16:39;99615.06;;;12.03;56.32
27864;BME280;15980;51.092;13.916;2023-05-08T08:26:39;99616.88;;;12.45;54.61
27864;BME280;15980;51.092;13.916;2023-05-08T08:36:40;99605.50;;;12.85;58.61
27864;BME280;15980;51.092;13.916;2023-05-08T08:46:43;99611.63;;;12.90;58.30
27864;BME280;15980;51.092;13.916;2023-05-08T08:56:49;99624.31;;;12.83;56.72
27864;BME280;15980;51.092;13.916;2023-05-08T09:06:50;99620.72;;;13.20;56.31
27864;BME280;15980;51.092;13.916;2023-05-08T09:16:50;99612.09;;;13.43;54.20
27864;BME280;15980;51.092;13.916;2023-05-08T09:26:50;99616.00;;;13.63;52.66
27864;BME280;15980;51.092;13.916;2023-05-08T09:36:51;99598.78;;;13.99;51.38
27864;BME280;15980;51.092;13.916;2023-05-08T09:47:08;99583.78;;;14.33;49.79
27864;BME280;15980;51.092;13.916;2023-05-08T09:57:11;99585.91;;;14.48;48.33
27864;BME280;15980;51.092;13.916;2023-05-08T10:07:12;99583.03;;;14.81;47.94
27864;BME280;15980;51.092;13.916;2023-05-08T10:17:14;99580.75;;;15.23;48.48
27864;BME280;15980;51.092;13.916;2023-05-08T10:27:29;99578.22;;;15.70;46.40
27864;BME280;15980;51.092;13.916;2023-05-08T10:37:32;99565.56;;;15.85;46.82
27864;BME280;15980;51.092;13.916;2023-05-08T10:58:28;99563.22;;;15.72;43.62
27864;BME280;15980;51.092;13.916;2023-05-08T11:08:30;99549.81;;;16.17;44.00
27864;BME280;15980;51.092;13.916;2023-05-08T11:18:30;99542.66;;;16.32;43.08
27864;BME280;15980;51.092;13.916;2023-05-08T11:28:38;99534.44;;;16.51;44.92
27864;BME280;15980;51.092;13.916;2023-05-08T11:38:39;99523.88;;;16.73;44.34
27864;BME280;15980;51.092;13.916;2023-05-08T11:48:39;99524.16;;;17.03;42.61
27864;BME280;15980;51.092;13.916;2023-05-08T11:58:40;99527.59;;;16.80;43.88
27864;BME280;15980;51.092;13.916;2023-05-08T12:08:40;99516.56;;;17.19;43.47
27864;BME280;15980;51.092;13.916;2023-05-08T12:18:40;99516.19;;;17.20;42.66
27864;BME280;15980;51.092;13.916;2023-05-08T12:28:43;99519.47;;;17.26;44.42
27864;BME280;15980;51.092;13.916;2023-05-08T12:38:43;99516.66;;;16.87;45.11
27864;BME280;15980;51.092;13.916;2023-05-08T12:48:44;99507.69;;;16.75;45.62
27864;BME280;15980;51.092;13.916;2023-05-08T12:58:44;99517.22;;;17.12;44.40
27864;BME280;15980;51.092;13.916;2023-05-08T13:08:44;99497.59;;;17.40;44.42
27864;BME280;15980;51.092;13.916;2023-05-08T13:18:44;99509.03;;;17.77;42.93
27864;BME280;15980;51.092;13.916;2023-05-08T13:28:45;99494.06;;;17.63;43.73
27864;BME280;15980;51.092;13.916;2023-05-08T13:38:45;99484.88;;;18.24;42.27
27864;BME280;15980;51.092;13.916;2023-05-08T13:48:45;99472.00;;;18.15;41.59
27864;BME280;15980;51.092;13.916;2023-05-08T13:58:46;99461.66;;;17.89;42.27
27864;BME280;15980;51.092;13.916;2023-05-08T14:08:46;99474.53;;;17.17;43.70
27864;BME280;15980;51.092;13.916;2023-05-08T14:18:46;99468.94;;;17.55;42.68
27864;BME280;15980;51.092;13.916;2023-05-08T14:28:46;99466.16;;;17.75;42.76
27864;BME280;15980;51.092;13.916;2023-05-08T14:38:47;99464.06;;;17.30;43.78
27864;BME280;15980;51.092;13.916;2023-05-08T14:48:47;99446.13;;;17.66;42.75
27864;BME280;15980;51.092;13.916;2023-05-08T14:58:47;99449.13;;;17.76;41.79
27864;BME280;15980;51.092;13.916;2023-05-08T15:08:48;99450.00;;;17.19;43.19
27864;BME280;15980;51.092;13.916;2023-05-08T15:18:48;99445.44;;;17.49;41.56
27864;BME280;15980;51.092;13.916;2023-05-08T15:28:48;99445.81;;;17.48;43.05
27864;BME280;15980;51.092;13.916;2023-05-08T15:38:49;99423.50;;;17.64;42.93
27864;BME280;15980;51.092;13.916;2023-05-08T15:48:49;99433.06;;;17.85;41.54
27864;BME280;15980;51.092;13.916;2023-05-08T15:58:50;99437.97;;;17.96;42.18
27864;BME280;15980;51.092;13.916;2023-05-08T16:08:50;99419.34;;;17.73;42.58
27864;BME280;15980;51.092;13.916;2023-05-08T16:18:51;99427.38;;;17.17;43.74
27864;BME280;15980;51.092;13.916;2023-05-08T16:28:51;99418.25;;;17.58;41.94
27864;BME280;15980;51.092;13.916;2023-05-08T16:38:51;99417.53;;;17.39;43.29
27864;BME280;15980;51.092;13.916;2023-05-08T16:48:51;99419.28;;;16.89;44.79
27864;BME280;15980;51.092;13.916;2023-05-08T16:58:52;99422.78;;;16.67;45.73
27864;BME280;15980;51.092;13.916;2023-05-08T17:08:52;99417.50;;;16.26;46.68
27864;BME280;15980;51.092;13.916;2023-05-08T17:18:52;99420.31;;;16.46;46.65
27864;BME280;15980;51.092;13.916;2023-05-08T17:28:53;99439.06;;;15.86;47.05
27864;BME280;15980;51.092;13.916;2023-05-08T17:38:53;99435.44;;;14.82;49.57
27864;BME280;15980;51.092;13.916;2023-05-08T17:48:54;99441.16;;;14.37;51.52
27864;BME280;15980;51.092;13.916;2023-05-08T17:58:54;99452.41;;;13.83;53.94
27864;BME280;15980;51.092;13.916;2023-05-08T18:08:54;99462.81;;;13.53;55.37
27864;BME280;15980;51.092;13.916;2023-05-08T18:18:54;99473.34;;;12.97;58.92
27864;BME280;15980;51.092;13.916;2023-05-08T18:28:55;99474.59;;;12.67;59.82
27864;BME280;15980;51.092;13.916;2023-05-08T18:38:55;99477.47;;;12.20;61.55
27864;BME280;15980;51.092;13.916;2023-05-08T18:48:55;99483.78;;;11.82;63.27
27864;BME280;15980;51.092;13.916;2023-05-08T18:58:56;99478.53;;;11.43;64.99
27864;BME280;15980;51.092;13.916;2023-05-08T19:08:56;99484.69;;;11.14;66.36
27864;BME280;15980;51.092;13.916;2023-05-08T19:18:56;99506.81;;;10.83;67.34
27864;BME280;15980;51.092;13.916;2023-05-08T19:28:56;99502.09;;;10.49;68.58
27864;BME280;15980;51.092;13.916;2023-05-08T19:38:57;99506.66;;;10.14;70.39
27864;BME280;15980;51.092;13.916;2023-05-08T19:48:57;99503.13;;;9.82;71.25
27864;BME280;15980;51.092;13.916;2023-05-08T19:58:57;99502.78;;;9.53;72.57
27864;BME280;15980;51.092;13.916;2023-05-08T20:08:57;99501.88;;;9.35;73.06
27864;BME280;15980;51.092;13.916;2023-05-08T20:18:58;99509.94;;;9.31;72.29
27864;BME280;15980;51.092;13.916;2023-05-08T20:28:58;99521.06;;;9.12;72.49
27864;BME280;15980;51.092;13.916;2023-05-08T20:38:58;99517.69;;;8.93;73.21
27864;BME280;15980;51.092;13.916;2023-05-08T20:48:59;99511.63;;;8.82;73.01
27864;BME280;15980;51.092;13.916;2023-05-08T20:58:59;99509.34;;;8.62;73.22
27864;BME280;15980;51.092;13.916;2023-05-08T21:08:59;99513.66;;;8.41;74.60
27864;BME280;15980;51.092;13.916;2023-05-08T21:19:00;99510.97;;;8.22;73.82
27864;BME280;15980;51.092;13.916;2023-05-08T21:29:00;99506.53;;;7.85;75.69
27864;BME280;15980;51.092;13.916;2023-05-08T21:39:01;99499.31;;;7.62;77.24
27864;BME280;15980;51.092;13.916;2023-05-08T21:49:02;99488.81;;;7.36;77.56
27864;BME280;15980;51.092;13.916;2023-05-08T21:59:02;99492.69;;;7.03;78.42
27864;BME280;15980;51.092;13.916;2023-05-08T22:09:03;99493.78;;;6.83;78.96
27864;BME280;15980;51.092;13.916;2023-05-08T22:19:04;99496.16;;;6.71;78.55
27864;BME280;15980;51.092;13.916;2023-05-08T22:29:04;99481.03;;;6.78;76.94
27864;BME280;15980;51.092;13.916;2023-05-08T22:39:05;99474.19;;;6.81;76.56
27864;BME280;15980;51.092;13.916;2023-05-08T22:49:06;99475.75;;;6.68;76.57
27864;BME280;15980;51.092;13.916;2023-05-08T22:59:06;99475.31;;;6.61;75.77
27864;BME280;15980;51.092;13.916;2023-05-08T23:09:06;99466.34;;;6.93;74.63
27864;BME280;15980;51.092;13.916;2023-05-08T23:19:07;99465.50;;;7.44;71.75
27864;BME280;15980;51.092;13.916;2023-05-08T23:29:07;99462.31;;;7.83;69.50
27864;BME280;15980;51.092;13.916;2023-05-08T23:39:07;99451.47;;;8.05;68.17
27864;BME280;15980;51.092;13.916;2023-05-08T23:49:07;99445.47;;;8.17;66.88
27864;BME280;15980;51.092;13.916;2023-05-08T23:59:08;99453.06;;;8.20;65.75
